Time;durP1;ratioP1;P1;durP2;ratioP2;P2;SDS_P1;SDS_P2;PMS_P1;PMS_P2;Temp;Humidity;BMP_temperature;BMP_pressure;BME280_temperature;BME280_humidity;BME280_pressure;Samples;Min_cycle;Max_cycle;Signal;HPM_P1;HPM_P2
2023/09/13 00:00:25;;;;;;;12.37;11.47;;;;;;;19.04;87.77;100870.25;4897889;29;20208;-69
2023/09/13 00:02:51;;;;;;;12.80;11.60;;;;;;;19.04;88.35;100874.84;4897927;29;20189;-68
2023/09/13 00:05:18;;;;;;;13.33;12.40;;;;;;;19.08;88.40;100870.69;4898183;29;20554;-68
2023/09/13 00:07:44;;;;;;;18.40;12.93;;;;;;;19.06;87.96;100859.19;4898163;29;20669;-68
2023/09/13 00:10:10;;;;;;;11.87;10.97;;;;;;;18.99;88.13;100853.75;4898144;29;20208;-68
2023/09/13 00:12:37;;;;;;;12.27;11.37;;;;;;;18.92;88.98;100852.06;4898403;29;20185;-68
2023/09/13 00:15:04;;;;;;;12.77;11.53;;;;;;;18.92;88.67;100860.22;4897868;29;20367;-67
2023/09/13 00:17:30;;;;;;;13.27;10.93;;;;;;;18.90;89.34;100862.28;4897770;29;20643;-67
2023/09/13 00:19:57;;;;;;;11.17;10.50;;;;;;;18.89;88.93;100866.84;4901140;29;20579;-68
2023/09/13 00:22:23;;;;;;;17.00;11.17;;;;;;;18.90;89.25;100871.22;4901707;29;20220;-67
2023/09/13 00:24:50;;;;;;;13.37;11.33;;;;;;;18.92;89.06;100873.75;4901411;29;20268;-68
2023/09/13 00:27:16;;;;;;;16.00;12.40;;;;;;;18.93;88.63;100873.53;4901430;29;20189;-68
2023/09/13 00:29:43;;;;;;;12.70;11.63;;;;;;;18.93;88.87;100881.66;4900048;29;20272;-68
2023/09/13 00:32:09;;;;;;;13.97;12.37;;;;;;;18.90;89.06;100884.78;4901294;29;20196;-67
2023/09/13 00:34:35;;;;;;;17.63;13.17;;;;;;;18.90;88.92;100889.34;4901542;29;20617;-67
2023/09/13 00:37:02;;;;;;;16.17;13.87;;;;;;;18.85;89.63;100884.53;4901362;29;20272;-67
2023/09/13 00:39:28;;;;;;;14.30;13.10;;;;;;;18.86;89.85;100894.34;4901099;29;20291;-67
2023/09/13 00:41:57;;;;;;;18.53;14.47;;;;;;;18.83;90.14;100899.34;4901255;29;20608;-67
2023/09/13 00:44:24;;;;;;;22.90;16.03;;;;;;;18.86;90.22;100905.19;4901374;29;20626;-67
2023/09/13 00:46:50;;;;;;;16.93;15.07;;;;;;;18.88;89.87;100910.41;4899796;29;20192;-67
2023/09/13 00:49:17;;;;;;;21.10;15.60;;;;;;;18.81;90.47;100899.53;4899711;29;20250;-68
2023/09/13 00:51:44;;;;;;;19.40;15.10;;;;;;;18.81;90.44;100913.06;4901498;29;20197;-67
2023/09/13 00:54:10;;;;;;;25.63;16.73;;;;;;;18.73;90.83;100915.94;4899897;29;20197;-67
2023/09/13 00:56:37;;;;;;;20.67;15.33;;;;;;;18.73;90.82;100917.81;4899583;29;20641;-67
2023/09/13 00:59:04;;;;;;;30.80;17.27;;;;;;;18.76;91.48;100917.41;4900834;29;20383;-67
2023/09/13 01:01:32;;;;;;;22.57;17.03;;;;;;;18.76;90.92;100907.41;4900723;29;20212;-67
2023/09/13 01:03:59;;;;;;;27.77;16.93;;;;;;;18.67;91.29;100914.88;4899501;29;20200;-67
2023/09/13 01:06:27;;;;;;;21.97;17.97;;;;;;;18.67;91.44;100914.06;4900728;29;20185;-67
2023/09/13 01:08:54;;;;;;;28.03;17.17;;;;;;;18.73;91.57;100909.69;4900890;29;20208;-67
2023/09/13 01:11:21;;;;;;;24.73;16.93;;;;;;;18.75;91.26;100908.47;4899304;29;20216;-68
2023/09/13 01:13:47;;;;;;;19.53;17.47;;;;;;;18.74;91.56;100909.50;4899370;29;20200;-67
2023/09/13 01:16:21;;;;;;;22.47;17.07;;;;;;;18.77;91.51;100908.25;4900742;29;20220;-67
2023/09/13 01:19:25;;;;;;;25.13;18.27;;;;;;;18.76;91.51;100912.00;4899280;29;20248;-67
2023/09/13 01:22:07;;;;;;;25.97;18.20;;;;;;;18.79;91.31;100908.91;4900441;29;20188;-68
2023/09/13 01:24:51;;;;;;;35.13;18.50;;;;;;;18.87;91.52;100901.44;4899157;29;20196;-68
2023/09/13 01:27:45;;;;;;;27.83;20.07;;;;;;;18.94;91.14;100904.16;4901135;29;20184;-68
2023/09/13 01:30:12;;;;;;;27.87;18.00;;;;;;;18.88;91.27;100897.72;4899644;29;20292;-68
2023/09/13 01:32:43;;;;;;;24.23;18.67;;;;;;;18.91;91.37;100904.59;4899028;29;20220;-68
2023/09/13 01:35:09;;;;;;;27.50;18.63;;;;;;;18.83;92.20;100899.34;4900747;29;20613;-68
2023/09/13 01:37:36;;;;;;;30.80;20.97;;;;;;;18.83;92.31;100900.19;4900063;29;20213;-68
2023/09/13 01:40:08;;;;;;;33.53;21.53;;;;;;;18.81;92.14;100902.25;4900405;29;20307;-68
2023/09/13 01:42:38;;;;;;;34.07;21.87;;;;;;;18.94;91.97;100910.44;4898689;29;20215;-67
2023/09/13 01:45:08;;;;;;;42.47;24.07;;;;;;;19.07;91.50;100906.94;4898778;29;20204;-67
2023/09/13 01:47:42;;;;;;;43.23;25.90;;;;;;;18.88;92.85;100918.53;4898875;29;20705;-68
2023/09/13 01:50:09;;;;;;;43.67;25.90;;;;;;;19.00;92.51;100906.94;4900279;29;20216;-69
2023/09/13 01:52:36;;;;;;;47.13;24.87;;;;;;;19.01;92.04;100914.00;4899885;29;20184;-69
2023/09/13 01:55:07;;;;;;;44.73;26.47;;;;;;;19.01;92.68;100908.56;4898595;29;20232;-69
2023/09/13 01:57:34;;;;;;;42.50;25.30;;;;;;;18.98;92.65;100914.41;4899985;29;20235;-69
2023/09/13 02:00:04;;;;;;;40.43;26.63;;;;;;;18.96;92.98;100932.75;4898420;29;20224;-68
2023/09/13 02:02:37;;;;;;;46.87;27.57;;;;;;;18.89;92.84;100921.03;4899763;29;20187;-68
2023/09/13 02:05:05;;;;;;;45.40;26.00;;;;;;;18.83;93.18;100924.56;4898448;29;20196;-68
2023/09/13 02:07:32;;;;;;;45.47;27.77;;;;;;;18.85;93.68;100925.19;4898413;29;20181;-68
2023/09/13 02:09:58;;;;;;;40.07;26.03;;;;;;;18.91;93.32;100920.84;4898489;29;20228;-69
2023/09/13 02:12:25;;;;;;;42.97;25.90;;;;;;;18.93;93.69;100925.00;4899775;29;20197;-69
2023/09/13 02:14:53;;;;;;;32.50;23.30;;;;;;;18.87;93.90;100923.13;4898276;29;20185;-69
2023/09/13 02:17:19;;;;;;;35.87;25.00;;;;;;;18.82;93.76;100920.19;4898351;29;20217;-69
2023/09/13 02:19:50;;;;;;;41.80;26.63;;;;;;;18.82;94.03;100925.59;4899297;29;20220;-69
2023/09/13 02:22:17;;;;;;;42.60;25.10;;;;;;;18.80;94.23;100933.06;4899478;29;20206;-69
2023/09/13 02:24:43;;;;;;;43.97;28.20;;;;;;;18.80;94.21;100934.97;4899164;29;20661;-69
2023/09/13 02:27:10;;;;;;;45.40;26.20;;;;;;;18.87;93.72;100928.53;4897873;29;20204;-69
2023/09/13 02:29:37;;;;;;;40.70;24.63;;;;;;;18.89;93.96;100928.31;4897791;29;20581;-69
2023/09/13 02:32:03;;;;;;;36.50;24.70;;;;;;;18.95;93.31;100925.66;4899305;29;20259;-69
2023/09/13 02:34:30;;;;;;;44.93;25.83;;;;;;;19.04;93.04;100929.88;4898988;29;20192;-69
2023/09/13 02:36:56;;;;;;;39.20;24.50;;;;;;;18.95;93.50;100925.66;4898919;29;20582;-69
2023/09/13 02:39:49;;;;;;;42.00;25.07;;;;;;;18.86;93.20;100921.44;4898999;29;20192;-70
2023/09/13 02:42:16;;;;;;;44.47;25.13;;;;;;;18.82;93.39;100928.31;4895909;29;20291;-69
2023/09/13 02:44:42;;;;;;;52.47;25.03;;;;;;;18.81;93.73;100926.63;4897636;29;20669;-69
2023/09/13 02:47:08;;;;;;;41.83;24.60;;;;;;;18.82;93.89;100933.72;4899097;29;20197;-69
2023/09/13 02:49:35;;;;;;;40.67;25.00;;;;;;;18.81;93.87;100937.47;4897495;29;20226;-69
2023/09/13 02:52:02;;;;;;;40.77;26.37;;;;;;;18.85;93.50;100943.31;4897592;29;20224;-69
2023/09/13 02:54:29;;;;;;;43.53;25.90;;;;;;;18.93;93.35;100943.13;4897479;29;20661;-69
2023/09/13 02:56:56;;;;;;;35.43;22.37;;;;;;;18.87;93.27;100939.38;4898613;29;20692;-69
2023/09/13 02:59:25;;;;;;;32.93;22.73;;;;;;;19.11;93.12;100946.16;4897375;29;20206;-69
2023/09/13 03:01:51;;;;;;;41.37;24.40;;;;;;;19.10;92.49;100953.44;4897407;29;20621;-68
2023/09/13 03:04:18;;;;;;;41.80;24.10;;;;;;;19.04;93.36;100948.00;4897630;29;20570;-68
2023/09/13 03:06:47;;;;;;;37.70;23.10;;;;;;;19.11;92.83;100952.41;4897374;29;20189;-68
2023/09/13 03:09:14;;;;;;;41.27;24.50;;;;;;;19.11;92.44;100952.41;4897160;29;20204;-69
2023/09/13 03:11:42;;;;;;;40.30;24.77;;;;;;;19.05;92.48;100955.09;4897278;29;20196;-69
2023/09/13 03:14:09;;;;;;;37.00;23.40;;;;;;;19.03;93.17;100947.16;4898470;29;20279;-69
2023/09/13 03:16:37;;;;;;;37.73;23.20;;;;;;;19.08;92.91;100947.41;4897381;29;20200;-69
2023/09/13 03:19:04;;;;;;;34.00;21.83;;;;;;;19.07;92.89;100953.84;4897183;29;20209;-69
2023/09/13 03:21:35;;;;;;;47.10;24.10;;;;;;;18.96;93.15;100946.31;4897174;29;20193;-68
2023/09/13 03:24:04;;;;;;;36.33;21.73;;;;;;;18.99;92.90;100956.72;4897102;29;20203;-68
2023/09/13 03:26:31;;;;;;;41.93;23.20;;;;;;;18.92;93.53;100947.75;4897289;29;20572;-68
2023/09/13 03:28:58;;;;;;;41.40;22.47;;;;;;;18.98;92.94;100952.34;4897119;29;20601;-69
2023/09/13 03:31:26;;;;;;;39.13;22.43;;;;;;;18.90;93.42;100946.25;4896972;29;20219;-68
2023/09/13 03:33:56;;;;;;;46.97;22.50;;;;;;;19.02;93.09;100952.78;4897036;29;20251;-68
2023/09/13 03:36:27;;;;;;;36.27;21.23;;;;;;;19.00;92.93;100957.56;4896822;29;20683;-68
2023/09/13 03:38:55;;;;;;;44.43;22.70;;;;;;;18.94;92.60;100948.38;4896951;29;20204;-68
2023/09/13 03:41:25;;;;;;;34.33;20.90;;;;;;;18.93;93.45;100954.81;4896893;29;20287;-69
2023/09/13 03:43:51;;;;;;;33.20;21.43;;;;;;;18.83;93.32;100958.94;4898322;29;20193;-69
2023/09/13 03:46:18;;;;;;;27.03;20.50;;;;;;;18.90;93.03;100963.34;4896850;29;20196;-69
2023/09/13 03:48:47;;;;;;;35.07;20.13;;;;;;;18.89;93.26;100961.66;4897152;29;20200;-69
2023/09/13 03:51:16;;;;;;;29.07;19.07;;;;;;;18.81;93.45;100967.25;4897007;29;20227;-69
2023/09/13 03:53:43;;;;;;;32.30;20.30;;;;;;;18.85;93.11;100968.53;4899414;29;20244;-69
2023/09/13 03:56:10;;;;;;;26.87;18.60;;;;;;;18.82;92.79;100966.22;4900691;29;20735;-69
2023/09/13 03:58:36;;;;;;;29.17;18.73;;;;;;;18.78;93.57;100964.13;4902051;29;20216;-69
2023/09/13 04:01:04;;;;;;;20.93;16.73;;;;;;;18.75;93.66;100965.34;4902053;29;20216;-69
2023/09/13 04:03:31;;;;;;;29.60;18.43;;;;;;;18.77;93.22;100963.28;4901810;29;20197;-69
2023/09/13 04:05:59;;;;;;;24.23;17.57;;;;;;;18.74;93.44;100963.69;4900518;29;20237;-69
2023/09/13 04:08:27;;;;;;;25.67;18.53;;;;;;;18.69;93.15;100958.00;4902067;29;20177;-69
2023/09/13 04:10:55;;;;;;;27.03;17.90;;;;;;;18.82;93.23;100966.22;4900394;29;20229;-69
2023/09/13 04:13:21;;;;;;;25.70;17.77;;;;;;;18.79;92.69;100966.63;4901651;29;20734;-69
2023/09/13 04:15:48;;;;;;;23.70;17.50;;;;;;;18.74;92.74;100966.38;4900342;29;20197;-69
2023/09/13 04:18:14;;;;;;;20.83;15.83;;;;;;;18.77;92.44;100967.84;4901703;29;20215;-69
2023/09/13 04:20:43;;;;;;;25.27;16.90;;;;;;;18.64;93.18;100968.59;4901450;29;20228;-69
2023/09/13 04:23:09;;;;;;;25.63;16.97;;;;;;;18.74;92.08;100971.81;4901697;29;20196;-69
2023/09/13 04:25:37;;;;;;;23.07;16.83;;;;;;;18.62;92.36;100967.97;4900142;29;20668;-69
2023/09/13 04:28:06;;;;;;;22.20;16.90;;;;;;;18.62;93.17;100973.41;4900155;29;20207;-69
2023/09/13 04:30:33;;;;;;;23.20;16.73;;;;;;;18.56;93.18;100975.00;4900029;29;20220;-69
2023/09/13 04:33:04;;;;;;;24.80;16.43;;;;;;;18.57;92.87;100978.56;4900634;29;20248;-69
2023/09/13 04:35:32;;;;;;;22.70;15.97;;;;;;;18.60;92.46;100970.03;4900049;29;20204;-69
2023/09/13 04:37:59;;;;;;;24.30;17.63;;;;;;;18.59;92.75;100968.34;4901433;29;20554;-69
2023/09/13 04:40:26;;;;;;;21.47;15.97;;;;;;;18.51;92.94;100972.03;4899802;29;20311;-69
2023/09/13 04:43:05;;;;;;;22.60;17.23;;;;;;;18.54;93.28;100977.06;4899847;29;20212;-69
2023/09/13 04:45:35;;;;;;;24.43;16.40;;;;;;;18.63;92.13;100980.47;4899876;29;20260;-69
2023/09/13 04:48:02;;;;;;;19.73;15.60;;;;;;;18.60;92.46;100983.56;4899840;29;20193;-69
2023/09/13 04:50:29;;;;;;;24.20;16.37;;;;;;;18.49;93.33;100973.25;4899823;29;20223;-69
2023/09/13 04:52:55;;;;;;;20.77;16.50;;;;;;;18.49;93.01;100979.53;4901272;29;20189;-69
2023/09/13 04:55:23;;;;;;;26.80;17.10;;;;;;;18.53;93.66;100977.28;4899749;29;20197;-69
2023/09/13 04:57:50;;;;;;;24.73;18.40;;;;;;;18.50;93.00;100978.47;4899659;29;20209;-69
2023/09/13 05:00:17;;;;;;;34.63;19.30;;;;;;;18.54;93.17;100987.09;4901126;29;20216;-69
2023/09/13 05:02:43;;;;;;;25.87;18.43;;;;;;;18.52;92.83;100983.69;4900911;29;20266;-70
2023/09/13 05:05:10;;;;;;;27.63;18.97;;;;;;;18.49;93.34;100984.94;4898591;29;20193;-70
2023/09/13 05:07:36;;;;;;;23.73;17.73;;;;;;;18.45;93.90;100989.06;4900927;29;20244;-70
2023/09/13 05:10:03;;;;;;;28.60;19.53;;;;;;;18.52;93.29;100986.41;4901103;29;20634;-71
2023/09/13 05:12:30;;;;;;;26.90;18.13;;;;;;;18.65;93.00;100994.66;4900651;29;20196;-70
2023/09/13 05:14:56;;;;;;;30.17;19.40;;;;;;;18.58;93.21;100996.50;4901068;29;20688;-70
2023/09/13 05:17:23;;;;;;;31.37;18.97;;;;;;;18.48;93.12;100991.38;4900446;29;20312;-70
2023/09/13 05:19:49;;;;;;;21.90;16.30;;;;;;;18.46;94.12;100993.44;4900411;29;20208;-70
2023/09/13 05:22:16;;;;;;;28.37;17.50;;;;;;;18.44;93.80;100998.22;4900388;29;20256;-70
2023/09/13 05:24:42;;;;;;;26.53;18.60;;;;;;;18.49;93.79;101001.19;4900380;29;20665;-70
2023/09/13 05:27:09;;;;;;;26.70;18.03;;;;;;;18.50;93.86;100999.31;4900884;29;20185;-70
2023/09/13 05:29:35;;;;;;;34.27;20.03;;;;;;;18.56;93.60;101012.91;4900219;29;20302;-70
2023/09/13 05:32:02;;;;;;;39.03;19.70;;;;;;;18.68;92.66;100999.66;4900757;29;20192;-70
2023/09/13 05:34:29;;;;;;;33.80;18.17;;;;;;;18.63;93.28;101013.81;4900764;29;20231;-70
2023/09/13 05:36:55;;;;;;;44.13;19.97;;;;;;;18.67;92.52;101014.28;4900101;29;20193;-68
2023/09/13 05:39:22;;;;;;;53.90;23.10;;;;;;;18.67;92.78;101008.84;4900582;29;20197;-69
2023/09/13 05:41:49;;;;;;;52.83;24.67;;;;;;;18.65;92.13;101013.63;4899982;29;20201;-69
2023/09/13 05:44:24;;;;;;;45.70;25.20;;;;;;;18.64;91.94;101015.47;4900024;29;20655;-69
2023/09/13 05:46:52;;;;;;;57.77;26.10;;;;;;;18.65;92.19;101021.75;4900216;29;20189;-69
2023/09/13 05:49:19;;;;;;;59.37;27.50;;;;;;;18.60;92.60;101030.44;4900374;29;20197;-69
2023/09/13 05:51:46;;;;;;;63.37;27.57;;;;;;;18.66;92.11;101028.84;4899862;29;20623;-68
2023/09/13 05:54:12;;;;;;;77.23;32.83;;;;;;;18.61;92.70;101036.72;4899824;29;20192;-68
2023/09/13 05:56:39;;;;;;;74.37;31.10;;;;;;;18.62;92.54;101035.69;4899853;29;20189;-68
2023/09/13 05:59:06;;;;;;;75.97;32.83;;;;;;;18.68;92.74;101046.56;4899681;29;20256;-68
2023/09/13 06:01:32;;;;;;;75.50;33.40;;;;;;;18.60;92.67;101045.84;4899668;29;20204;-68
2023/09/13 06:03:59;;;;;;;87.77;34.53;;;;;;;18.53;93.09;101039.56;4899916;29;20688;-68
2023/09/13 06:06:25;;;;;;;97.47;37.83;;;;;;;18.48;93.33;101041.97;4899608;29;20774;-68
2023/09/13 06:08:52;;;;;;;81.90;35.47;;;;;;;18.45;93.22;101045.94;4900117;29;20581;-69
2023/09/13 06:11:18;;;;;;;90.33;36.10;;;;;;;18.49;93.47;101051.78;4899443;29;20269;-69
2023/09/13 06:13:45;;;;;;;93.23;37.97;;;;;;;18.51;93.07;101049.69;4899973;29;20257;-69
2023/09/13 06:16:12;;;;;;;89.40;37.10;;;;;;;18.49;92.98;101054.50;4898992;29;20555;-69
2023/09/13 06:18:38;;;;;;;92.83;37.57;;;;;;;18.39;93.28;101062.94;4899528;29;20208;-69
2023/09/13 06:21:05;;;;;;;94.47;37.50;;;;;;;18.41;93.16;101062.75;4899274;29;20213;-69
2023/09/13 06:23:37;;;;;;;85.13;35.43;;;;;;;18.35;92.74;101063.50;4899862;29;20253;-69
2023/09/13 06:26:04;;;;;;;96.90;39.23;;;;;;;18.30;93.00;101074.94;4899745;29;20224;-69
2023/09/13 06:28:31;;;;;;;93.20;36.40;;;;;;;18.37;93.08;101081.25;4899763;29;20188;-69
2023/09/13 06:30:59;;;;;;;91.87;38.50;;;;;;;18.38;93.04;101079.38;4899080;29;20216;-69
2023/09/13 06:33:29;;;;;;;92.10;38.87;;;;;;;18.37;92.65;101067.72;4899430;29;20625;-69
2023/09/13 06:36:16;;;;;;;101.47;37.33;;;;;;;18.25;93.03;101078.22;4899116;29;20263;-69
2023/09/13 06:38:43;;;;;;;95.53;37.50;;;;;;;18.31;92.66;101081.19;4899545;29;20211;-69
2023/09/13 06:41:11;;;;;;;89.97;35.23;;;;;;;18.32;92.47;101080.16;4898957;29;20216;-70
2023/09/13 06:43:38;;;;;;;101.57;34.93;;;;;;;18.32;92.78;101077.44;4898986;29;20220;-69
2023/09/13 06:46:18;;;;;;;83.70;34.80;;;;;;;18.33;92.71;101081.84;4899015;29;20192;-69
2023/09/13 06:48:46;;;;;;;95.37;36.83;;;;;;;18.36;92.70;101081.44;4898837;29;20253;-69
2023/09/13 06:51:12;;;;;;;93.17;36.23;;;;;;;18.34;93.23;101084.31;4898754;29;20232;-69
2023/09/13 06:53:59;;;;;;;82.27;31.90;;;;;;;18.40;92.72;101088.16;4899072;29;20690;-69
2023/09/13 06:56:27;;;;;;;81.90;33.47;;;;;;;18.43;92.14;101091.28;4899014;29;20288;-69
2023/09/13 06:58:58;;;;;;;86.37;32.30;;;;;;;18.40;91.58;101099.81;4898885;29;20236;-69
2023/09/13 07:01:28;;;;;;;71.33;30.50;;;;;;;18.42;91.75;101100.44;4899176;29;20220;-69
2023/09/13 07:04:14;;;;;;;68.50;30.43;;;;;;;18.35;90.71;101104.13;4898965;29;20180;-68
2023/09/13 07:06:51;;;;;;;72.63;30.43;;;;;;;18.32;91.21;101099.94;4898526;29;20185;-68
2023/09/13 07:09:18;;;;;;;71.13;26.90;;;;;;;18.32;90.61;101105.34;4898456;29;20252;-68
2023/09/13 07:11:44;;;;;;;67.23;28.77;;;;;;;18.32;90.47;101110.78;4898740;29;20725;-68
2023/09/13 07:14:10;;;;;;;65.63;28.47;;;;;;;18.40;91.26;101113.34;4899134;29;20197;-68
2023/09/13 07:16:37;;;;;;;59.63;28.13;;;;;;;18.41;90.24;101116.91;4898416;29;20275;-68
2023/09/13 07:19:04;;;;;;;71.73;28.60;;;;;;;18.36;91.39;101116.63;4898610;29;20255;-68
2023/09/13 07:21:30;;;;;;;63.17;28.63;;;;;;;18.48;90.35;101123.22;4898792;29;20212;-68
2023/09/13 07:23:57;;;;;;;60.80;27.60;;;;;;;18.50;91.21;101121.97;4898540;29;20224;-68
2023/09/13 07:26:23;;;;;;;66.73;29.73;;;;;;;18.52;90.44;101125.38;4898508;29;20276;-68
2023/09/13 07:28:49;;;;;;;68.13;29.30;;;;;;;18.57;91.17;101127.50;4897585;29;20177;-68
2023/09/13 07:31:16;;;;;;;63.47;27.67;;;;;;;18.53;90.51;101118.94;4898722;29;20256;-68
2023/09/13 07:33:43;;;;;;;69.67;30.43;;;;;;;18.64;91.37;101120.25;4898755;29;20220;-68
2023/09/13 07:36:09;;;;;;;59.27;29.37;;;;;;;18.64;91.03;101121.09;4898479;29;20181;-68
2023/09/13 07:38:37;;;;;;;76.17;31.00;;;;;;;18.69;91.17;101134.06;4898346;29;20609;-68
2023/09/13 07:41:04;;;;;;;65.33;29.57;;;;;;;18.77;90.76;101125.81;4898175;29;20719;-68
2023/09/13 07:43:31;;;;;;;73.53;31.80;;;;;;;18.70;90.87;101133.03;4898146;29;20282;-68
2023/09/13 07:45:57;;;;;;;78.47;31.30;;;;;;;18.81;90.96;101128.94;4898108;29;20226;-67
2023/09/13 07:48:26;;;;;;;73.73;31.70;;;;;;;18.75;91.20;101146.00;4897982;29;20188;-67
2023/09/13 07:50:53;;;;;;;74.67;29.80;;;;;;;18.83;89.44;101137.75;4897931;29;20212;-68
2023/09/13 07:53:19;;;;;;;60.43;28.10;;;;;;;18.82;89.41;101147.72;4898307;29;20180;-67
2023/09/13 07:55:46;;;;;;;65.07;28.10;;;;;;;18.78;89.99;101159.16;4898379;29;20181;-67
2023/09/13 07:58:13;;;;;;;63.63;28.30;;;;;;;18.82;89.82;101161.28;4898111;29;20212;-67
2023/09/13 08:00:39;;;;;;;64.43;29.50;;;;;;;18.86;89.68;101165.28;4897984;29;20220;-68
2023/09/13 08:03:06;;;;;;;62.90;29.07;;;;;;;18.84;89.37;101161.09;4898500;29;20188;-67
2023/09/13 08:05:32;;;;;;;64.17;29.13;;;;;;;18.81;89.13;101169.59;4897856;29;20193;-67
2023/09/13 08:07:59;;;;;;;65.90;29.50;;;;;;;18.69;88.59;101167.41;4898174;29;20185;-67
2023/09/13 08:10:26;;;;;;;64.73;27.77;;;;;;;18.72;88.23;101168.88;4897796;29;20216;-68
2023/09/13 08:12:52;;;;;;;67.53;29.37;;;;;;;18.68;88.39;101178.44;4898191;29;20641;-67
2023/09/13 08:15:19;;;;;;;54.27;26.90;;;;;;;18.66;88.48;101184.06;4897846;29;20193;-67
2023/09/13 08:17:59;;;;;;;68.10;29.33;;;;;;;18.63;88.55;101181.72;4897951;29;20300;-67
2023/09/13 08:20:26;;;;;;;67.53;27.90;;;;;;;18.65;89.25;101195.06;4898005;29;20220;-68
2023/09/13 08:22:52;;;;;;;52.47;25.23;;;;;;;18.71;88.52;101189.72;4898378;29;20189;-67
2023/09/13 08:25:20;;;;;;;64.30;26.67;;;;;;;18.71;88.09;101195.13;4897690;29;20685;-67
2023/09/13 08:27:46;;;;;;;67.47;28.53;;;;;;;18.77;88.48;101193.53;4897767;29;20244;-67
2023/09/13 08:30:12;;;;;;;67.80;28.67;;;;;;;18.89;88.11;101202.81;4897706;29;20216;-68
2023/09/13 08:32:39;;;;;;;62.87;28.27;;;;;;;18.97;88.57;101202.66;4897752;29;20177;-67
2023/09/13 08:35:06;;;;;;;69.23;29.37;;;;;;;18.96;88.56;101206.44;4897616;29;20208;-67
2023/09/13 08:37:32;;;;;;;56.60;28.50;;;;;;;18.93;88.91;101208.66;4897655;29;20209;-68
2023/09/13 08:39:59;;;;;;;62.20;27.23;;;;;;;18.86;88.82;101205.91;4899436;29;20638;-69
2023/09/13 08:42:31;;;;;;;63.43;26.47;;;;;;;18.76;89.34;101205.38;4901321;29;20677;-69
2023/09/13 08:44:59;;;;;;;59.83;27.77;;;;;;;18.77;89.37;101207.06;4901443;29;20184;-69
2023/09/13 08:47:29;;;;;;;78.13;29.77;;;;;;;18.80;89.83;101216.69;4901068;29;20619;-69
2023/09/13 08:50:19;;;;;;;66.80;29.67;;;;;;;18.80;90.19;101219.41;4900985;29;20580;-70
2023/09/13 08:52:47;;;;;;;70.53;29.93;;;;;;;18.94;90.16;101219.31;4901297;29;20193;-70
2023/09/13 08:55:15;;;;;;;61.17;28.80;;;;;;;18.99;90.70;101224.16;4901177;29;20618;-70
2023/09/13 08:57:42;;;;;;;74.50;31.57;;;;;;;19.08;90.42;101221.13;4901507;29;20258;-70
2023/09/13 09:00:09;;;;;;;66.07;29.00;;;;;;;19.09;89.10;101224.69;4900694;29;20705;-70
2023/09/13 09:02:38;;;;;;;64.57;29.47;;;;;;;19.05;88.87;101216.06;4901334;29;20192;-69
2023/09/13 09:05:10;;;;;;;66.43;26.67;;;;;;;19.16;88.15;101228.28;4900760;29;20666;-69
2023/09/13 09:07:38;;;;;;;68.90;29.17;;;;;;;19.12;87.93;101227.84;4901054;29;20212;-69
2023/09/13 09:10:11;;;;;;;58.07;27.57;;;;;;;19.05;88.34;101223.41;4900638;29;20217;-69
2023/09/13 09:12:42;;;;;;;62.10;28.27;;;;;;;19.15;88.37;101230.16;4900860;29;20188;-69
2023/09/13 09:15:11;;;;;;;54.33;26.43;;;;;;;19.17;87.56;101230.81;4900826;29;20181;-69
2023/09/13 09:17:41;;;;;;;51.80;26.03;;;;;;;19.13;87.50;101237.66;4901066;29;20208;-68
2023/09/13 09:20:08;;;;;;;58.03;26.27;;;;;;;19.27;88.21;101240.44;4900376;29;20231;-69
2023/09/13 09:22:36;;;;;;;58.70;26.17;;;;;;;19.37;87.72;101247.22;4900467;29;20193;-68
2023/09/13 09:25:02;;;;;;;47.37;25.17;;;;;;;19.32;86.09;101246.13;4900416;29;20601;-68
2023/09/13 09:27:29;;;;;;;45.93;24.00;;;;;;;19.31;86.76;101241.78;4900940;29;20241;-68
2023/09/13 09:30:00;;;;;;;38.83;23.37;;;;;;;19.39;86.61;101239.72;4900528;29;20612;-69
2023/09/13 09:32:28;;;;;;;52.87;25.10;;;;;;;19.34;86.33;101239.50;4900534;29;20192;-68
2023/09/13 09:34:57;;;;;;;50.00;24.93;;;;;;;19.43;86.77;101243.78;4900552;29;20189;-68
2023/09/13 09:37:32;;;;;;;49.53;24.60;;;;;;;19.61;86.13;101240.53;4900493;29;20267;-68
2023/09/13 09:39:59;;;;;;;40.77;24.97;;;;;;;19.65;85.03;101241.81;4900329;29;20224;-68
2023/09/13 09:42:26;;;;;;;50.37;24.63;;;;;;;19.69;85.23;101242.28;4900188;29;20615;-68
2023/09/13 09:44:54;;;;;;;46.73;25.23;;;;;;;19.57;84.63;101253.66;4900081;29;20245;-68
2023/09/13 09:47:21;;;;;;;21.57;15.73;;;;;;;19.52;84.64;101271.56;4900035;29;20200;-68
2023/09/13 09:49:47;;;;;;;14.40;8.03;;;;;;;18.99;84.02;101289.19;4899951;29;20209;-69
2023/09/13 09:52:15;;;;;;;7.40;6.90;;;;;;;18.65;84.73;101289.88;4899435;29;20725;-70
2023/09/13 09:54:50;;;;;;;5.20;4.30;;;;;;;18.35;84.46;101301.75;4900129;29;20200;-71
2023/09/13 09:57:21;;;;;;;3.40;3.40;;;;;;;18.11;85.16;101302.88;4900353;29;20192;-70
2023/09/13 09:59:49;;;;;;;5.47;5.37;;;;;;;17.90;86.42;101300.91;4899719;29;20228;-70
2023/09/13 10:02:16;;;;;;;5.77;5.33;;;;;;;17.83;86.74;101302.66;4900303;29;20667;-70
2023/09/13 10:04:48;;;;;;;5.03;4.93;;;;;;;17.59;87.52;101305.59;4899943;29;20199;-70
2023/09/13 10:07:15;;;;;;;5.87;5.47;;;;;;;17.53;87.77;101300.88;4899661;29;20203;-70
2023/09/13 10:09:43;;;;;;;6.20;6.00;;;;;;;17.51;88.35;101319.16;4899979;29;20209;-70
2023/09/13 10:12:11;;;;;;;3.23;3.07;;;;;;;17.46;87.88;101319.72;4899871;29;20172;-70
2023/09/13 10:14:39;;;;;;;3.27;2.97;;;;;;;17.28;87.66;101316.47;4899558;29;20197;-70
2023/09/13 10:17:07;;;;;;;4.33;2.83;;;;;;;17.16;87.79;101328.72;4899494;29;20199;-70
2023/09/13 10:19:34;;;;;;;3.03;2.93;;;;;;;17.12;88.39;101328.25;4899336;29;20224;-71
2023/09/13 10:22:02;;;;;;;3.13;3.13;;;;;;;17.14;88.49;101333.50;4899933;29;20188;-70
2023/09/13 10:24:36;;;;;;;3.83;3.50;;;;;;;17.11;88.33;101340.06;4899382;29;20196;-70
2023/09/13 10:27:05;;;;;;;3.30;3.30;;;;;;;17.09;88.44;101342.13;4900026;29;20177;-69
2023/09/13 10:29:39;;;;;;;3.37;3.37;;;;;;;17.04;89.00;101346.38;4899524;29;20569;-70
2023/09/13 10:32:11;;;;;;;4.17;3.97;;;;;;;17.02;89.30;101353.81;4899493;29;20195;-69
2023/09/13 10:34:46;;;;;;;4.50;3.33;;;;;;;16.90;89.07;101358.78;4899423;29;20185;-70
2023/09/13 10:37:24;;;;;;;2.60;2.60;;;;;;;16.85;89.23;101361.16;4899413;29;20180;-70
2023/09/13 10:40:10;;;;;;;3.87;3.77;;;;;;;16.84;89.46;101370.31;4899484;29;20625;-70
2023/09/13 10:42:39;;;;;;;3.40;3.40;;;;;;;16.92;88.51;101369.41;4899354;29;20200;-70
2023/09/13 10:45:07;;;;;;;3.93;3.73;;;;;;;16.81;88.56;101379.59;4899302;29;20554;-70
2023/09/13 10:47:36;;;;;;;3.60;3.40;;;;;;;16.76;88.86;101379.25;4899202;29;20661;-70
2023/09/13 10:50:05;;;;;;;3.87;3.87;;;;;;;16.69;88.87;101381.00;4898778;29;20211;-70
2023/09/13 10:52:32;;;;;;;3.20;3.13;;;;;;;16.76;88.16;101384.66;4899085;29;20189;-69
2023/09/13 10:55:00;;;;;;;3.33;2.33;;;;;;;16.69;88.25;101391.78;4898780;29;20193;-69
2023/09/13 10:57:26;;;;;;;3.43;3.23;;;;;;;16.71;88.50;101392.47;4899031;29;20257;-69
2023/09/13 10:59:53;;;;;;;2.93;2.77;;;;;;;16.71;88.74;101389.78;4898604;29;20232;-70
2023/09/13 11:02:21;;;;;;;3.47;3.37;;;;;;;16.78;87.96;101392.59;4898879;29;20606;-69
2023/09/13 11:04:48;;;;;;;7.40;3.00;;;;;;;16.81;88.03;101397.63;4898636;29;20208;-69
2023/09/13 11:07:15;;;;;;;3.30;3.20;;;;;;;16.90;87.62;101407.41;4898876;29;20192;-69
2023/09/13 11:09:43;;;;;;;2.37;2.33;;;;;;;16.83;86.49;101407.28;4898461;29;20209;-69
2023/09/13 11:12:12;;;;;;;2.47;2.20;;;;;;;16.86;85.95;101415.00;4898815;29;20185;-69
2023/09/13 11:14:46;;;;;;;3.33;2.33;;;;;;;16.82;85.55;101420.94;4898695;29;20613;-68
2023/09/13 11:17:37;;;;;;;2.90;2.80;;;;;;;16.73;84.77;101432.78;4898488;29;20212;-69